Time;durP1;ratioP1;P1;durP2;ratioP2;P2;SDS_P1;SDS_P2;PMS_P1;PMS_P2;Temp;Humidity;BMP_temperature;BMP_pressure;BME280_temperature;BME280_humidity;BME280_pressure;Samples;Min_cycle;Max_cycle;Signal;HPM_P1;HPM_P2
2023/08/13 00:01:20;;;;;;;;;;;16.70;99.90;;;;;;5063484;28;19904;-85
2023/08/13 00:03:45;;;;;;;;;;;16.60;99.90;;;;;;5059588;28;19921;-85
2023/08/13 00:06:11;;;;;;;;;;;16.60;99.90;;;;;;5048706;28;20042;-85
2023/08/13 00:08:37;;;;;;;;;;;16.70;99.90;;;;;;5044759;28;19998;-86
2023/08/13 00:11:07;;;;;;;;;;;16.70;99.90;;;;;;5041832;28;19913;-86
2023/08/13 00:13:33;;;;;;;;;;;16.80;99.90;;;;;;5063728;28;20364;-86
2023/08/13 00:15:59;;;;;;;;;;;16.80;99.90;;;;;;5061800;28;19911;-86
2023/08/13 00:18:26;;;;;;;;;;;16.70;99.90;;;;;;5064296;28;19908;-86
2023/08/13 00:20:51;;;;;;;;;;;16.60;99.90;;;;;;5041839;28;19908;-86
2023/08/13 00:23:17;;;;;;;;;;;16.60;99.90;;;;;;5066383;28;20529;-84
2023/08/13 00:25:42;;;;;;;;;;;16.50;99.90;;;;;;5042944;28;19959;-86
2023/08/13 00:28:08;;;;;;;;;;;16.40;99.90;;;;;;5061819;28;19916;-85
2023/08/13 00:30:34;;;;;;;;;;;16.20;99.90;;;;;;5043439;28;20007;-86
2023/08/13 00:33:00;;;;;;;;;;;16.10;99.90;;;;;;5062973;28;19916;-86
2023/08/13 00:35:25;;;;;;;;;;;16.00;99.90;;;;;;5060285;28;20661;-85
2023/08/13 00:37:51;;;;;;;;;;;16.00;99.90;;;;;;5041765;28;20020;-86
2023/08/13 00:40:17;;;;;;;;;;;15.90;99.90;;;;;;5046410;28;19916;-86
2023/08/13 00:42:42;;;;;;;;;;;15.90;99.90;;;;;;5059879;28;19978;-85
2023/08/13 00:45:08;;;;;;;;;;;15.90;99.90;;;;;;5064886;28;19908;-85
2023/08/13 00:47:34;;;;;;;;;;;15.90;99.90;;;;;;5062042;28;20278;-86
2023/08/13 00:50:01;;;;;;;;;;;15.90;99.90;;;;;;5040538;28;20364;-85
2023/08/13 00:52:49;;;;;;;;;;;15.80;99.90;;;;;;5064629;28;19908;-85
2023/08/13 00:55:14;;;;;;;;;;;15.80;99.90;;;;;;5053314;28;19909;-86
2023/08/13 00:57:40;;;;;;;;;;;15.80;99.90;;;;;;5053209;28;20278;-86
2023/08/13 01:00:06;;;;;;;;;;;15.80;99.90;;;;;;5062642;28;19916;-86
2023/08/13 01:02:32;;;;;;;;;;;15.70;99.90;;;;;;5057480;28;19912;-86
2023/08/13 01:04:59;;;;;;;;;;;15.70;99.90;;;;;;5046738;28;20456;-85
2023/08/13 01:07:29;;;;;;;;;;;15.60;99.90;;;;;;5042926;28;19996;-85
2023/08/13 01:10:14;;;;;;;;;;;15.60;99.90;;;;;;5043650;28;19959;-85
2023/08/13 01:12:40;;;;;;;;;;;15.60;99.90;;;;;;5045360;28;19952;-85
2023/08/13 01:15:08;;;;;;;;;;;15.60;99.90;;;;;;5078075;28;19954;-85
2023/08/13 01:17:35;;;;;;;;;;;15.50;99.90;;;;;;5059391;28;19916;-85
2023/08/13 01:20:03;;;;;;;;;;;15.50;99.90;;;;;;5062867;28;20248;-86
2023/08/13 01:22:29;;;;;;;;;;;15.50;99.90;;;;;;5044144;28;19909;-86
2023/08/13 01:24:55;;;;;;;;;;;15.50;99.90;;;;;;5057904;28;20003;-86
2023/08/13 01:27:29;;;;;;;;;;;15.50;99.90;;;;;;5045712;28;19987;-86
2023/08/13 01:29:57;;;;;;;;;;;15.50;99.90;;;;;;5058946;28;19909;-86
2023/08/13 01:32:29;;;;;;;;;;;15.50;99.90;;;;;;5048417;28;20371;-86
2023/08/13 01:34:55;;;;;;;;;;;15.40;99.90;;;;;;5070496;28;19913;-86
2023/08/13 01:37:20;;;;;;;;;;;15.40;99.90;;;;;;5041408;28;19959;-86
2023/08/13 01:39:47;;;;;;;;;;;15.40;99.90;;;;;;5061089;28;19921;-86
2023/08/13 01:42:13;;;;;;;;;;;15.40;99.90;;;;;;5043761;28;20305;-86
2023/08/13 01:44:39;;;;;;;;;;;15.40;99.90;;;;;;5055235;28;19908;-86
2023/08/13 01:47:04;;;;;;;;;;;15.40;99.90;;;;;;5060746;28;19908;-86
2023/08/13 01:49:31;;;;;;;;;;;15.40;99.90;;;;;;5057289;28;20364;-86
2023/08/13 01:51:57;;;;;;;;;;;15.40;99.90;;;;;;5041768;28;19908;-86
2023/08/13 01:54:22;;;;;;;;;;;15.30;99.90;;;;;;5039879;28;19936;-86
2023/08/13 01:56:48;;;;;;;;;;;15.30;99.90;;;;;;5060896;28;19908;-87
2023/08/13 01:59:14;;;;;;;;;;;15.40;99.90;;;;;;5041403;28;20374;-86
2023/08/13 02:01:40;;;;;;;;;;;15.40;99.90;;;;;;5063431;28;19915;-86
2023/08/13 02:04:06;;;;;;;;;;;15.40;99.90;;;;;;5059530;28;19916;-86
2023/08/13 02:06:33;;;;;;;;;;;15.50;99.90;;;;;;5041283;28;19966;-87
2023/08/13 02:08:59;;;;;;;;;;;15.50;99.90;;;;;;5042815;28;19919;-86
2023/08/13 02:11:25;;;;;;;;;;;15.50;99.90;;;;;;5043188;28;19908;-86
2023/08/13 02:13:51;;;;;;;;;;;15.50;99.90;;;;;;5053482;28;19955;-86
2023/08/13 02:16:16;;;;;;;;;;;15.50;99.90;;;;;;5044401;28;20318;-86
2023/08/13 02:18:43;;;;;;;;;;;15.60;99.90;;;;;;5055948;28;19908;-86
2023/08/13 02:21:08;;;;;;;;;;;15.60;99.90;;;;;;5043924;28;20360;-86
2023/08/13 02:23:34;;;;;;;;;;;15.60;99.90;;;;;;5056613;28;19909;-87
2023/08/13 02:25:59;;;;;;;;;;;15.60;99.90;;;;;;5044732;28;19920;-86
2023/08/13 02:28:25;;;;;;;;;;;15.60;99.90;;;;;;5058925;28;19916;-86
2023/08/13 02:30:51;;;;;;;;;;;15.60;99.90;;;;;;5039379;28;20047;-86
2023/08/13 02:33:16;;;;;;;;;;;15.60;99.90;;;;;;5053043;28;19920;-86
2023/08/13 02:35:42;;;;;;;;;;;15.70;99.90;;;;;;5039010;28;19909;-86
2023/08/13 02:38:08;;;;;;;;;;;15.80;99.90;;;;;;5043220;28;19940;-86
2023/08/13 02:40:33;;;;;;;;;;;15.80;99.90;;;;;;5039856;28;20368;-86
2023/08/13 02:42:59;;;;;;;;;;;16.00;99.90;;;;;;5044500;28;19955;-87
2023/08/13 02:45:26;;;;;;;;;;;16.00;99.90;;;;;;5035798;28;19908;-86
2023/08/13 02:47:51;;;;;;;;;;;16.10;99.90;;;;;;5039426;28;19920;-86
2023/08/13 02:50:17;;;;;;;;;;;16.20;99.90;;;;;;5042717;28;19912;-86
2023/08/13 02:52:43;;;;;;;;;;;16.20;99.90;;;;;;5042127;28;20347;-86
2023/08/13 02:55:08;;;;;;;;;;;16.20;99.90;;;;;;5043984;28;19951;-87
2023/08/13 02:57:34;;;;;;;;;;;16.30;99.90;;;;;;5044926;28;19908;-86
2023/08/13 02:59:59;;;;;;;;;;;16.30;99.90;;;;;;5044317;28;19912;-86
2023/08/13 03:02:25;;;;;;;;;;;16.40;99.90;;;;;;5054433;28;19908;-86
2023/08/13 03:04:51;;;;;;;;;;;16.40;99.90;;;;;;5061843;28;19913;-86
2023/08/13 03:07:16;;;;;;;;;;;16.60;99.90;;;;;;5050264;28;19908;-84
2023/08/13 03:09:42;;;;;;;;;;;16.70;99.90;;;;;;5060131;28;19948;-87
2023/08/13 03:12:08;;;;;;;;;;;16.70;99.90;;;;;;5043976;28;19913;-87
2023/08/13 03:14:34;;;;;;;;;;;16.70;99.90;;;;;;5056694;28;20402;-86
2023/08/13 03:16:59;;;;;;;;;;;16.80;99.90;;;;;;5045674;28;19908;-86
2023/08/13 03:19:25;;;;;;;;;;;16.90;99.90;;;;;;5038633;28;19944;-86
2023/08/13 03:21:50;;;;;;;;;;;17.00;99.90;;;;;;5060104;28;19909;-86
2023/08/13 03:24:16;;;;;;;;;;;17.00;99.90;;;;;;5057644;28;19993;-86
2023/08/13 03:26:44;;;;;;;;;;;17.10;99.90;;;;;;5053919;28;24079;-86
2023/08/13 03:29:12;;;;;;;;;;;17.20;99.90;;;;;;5041824;28;21466;-87
2023/08/13 03:31:38;;;;;;;;;;;17.20;99.90;;;;;;5056125;28;19956;-86
2023/08/13 03:34:16;;;;;;;;;;;17.30;99.90;;;;;;5046297;28;19912;-87
2023/08/13 03:36:41;;;;;;;;;;;17.30;99.90;;;;;;5056808;28;19928;-86
2023/08/13 03:39:07;;;;;;;;;;;17.40;99.90;;;;;;5041753;28;20363;-87
2023/08/13 03:41:32;;;;;;;;;;;17.40;99.90;;;;;;5055077;28;19952;-86
2023/08/13 03:43:58;;;;;;;;;;;17.50;99.90;;;;;;5044049;28;19912;-86
2023/08/13 03:46:23;;;;;;;;;;;17.50;99.90;;;;;;5040245;28;19904;-86
2023/08/13 03:48:49;;;;;;;;;;;17.60;99.90;;;;;;5037907;28;19982;-86
2023/08/13 03:51:15;;;;;;;;;;;17.60;99.90;;;;;;5057482;28;19915;-86
2023/08/13 03:53:40;;;;;;;;;;;17.70;99.90;;;;;;5057816;28;19912;-86
2023/08/13 03:56:06;;;;;;;;;;;17.70;99.90;;;;;;5043118;28;19917;-87
2023/08/13 03:58:34;;;;;;;;;;;17.70;99.90;;;;;;5042561;28;25063;-86
2023/08/13 04:01:07;;;;;;;;;;;17.70;99.90;;;;;;5052729;28;19908;-87
2023/08/13 04:03:36;;;;;;;;;;;17.70;99.90;;;;;;5039406;28;19920;-87
2023/08/13 04:06:02;;;;;;;;;;;17.60;99.90;;;;;;5054597;28;19953;-86
2023/08/13 04:08:28;;;;;;;;;;;17.60;99.90;;;;;;5056286;28;19916;-87
2023/08/13 04:10:54;;;;;;;;;;;17.60;99.90;;;;;;5038781;28;19909;-86
2023/08/13 04:13:20;;;;;;;;;;;17.60;99.90;;;;;;5056375;28;19909;-87
2023/08/13 04:15:45;;;;;;;;;;;17.50;99.90;;;;;;5039790;28;19909;-88
2023/08/13 04:18:12;;;;;;;;;;;17.50;99.90;;;;;;5060954;28;19972;-88
2023/08/13 04:20:41;;;;;;;;;;;17.50;99.90;;;;;;5056691;28;19999;-88
2023/08/13 04:23:07;;;;;;;;;;;17.50;99.90;;;;;;5037625;28;19917;-88
2023/08/13 04:25:33;;;;;;;;;;;17.40;99.90;;;;;;5041490;28;19927;-87
2023/08/13 04:27:59;;;;;;;;;;;17.50;99.90;;;;;;5056161;28;20007;-87
2023/08/13 04:30:25;;;;;;;;;;;17.50;99.90;;;;;;5043485;28;20003;-88
2023/08/13 04:32:54;;;;;;;;;;;17.60;99.90;;;;;;5063385;28;19909;-88
2023/08/13 04:35:23;;;;;;;;;;;17.60;99.90;;;;;;5041210;28;20348;-88
2023/08/13 04:37:49;;;;;;;;;;;17.60;99.90;;;;;;5064063;28;20325;-88
2023/08/13 04:40:16;;;;;;;;;;;17.70;99.90;;;;;;5042092;28;20294;-88
2023/08/13 04:42:45;;;;;;;;;;;17.70;99.90;;;;;;5066915;28;19908;-88
2023/08/13 04:45:12;;;;;;;;;;;17.80;99.90;;;;;;5059538;28;19991;-87
2023/08/13 04:47:38;;;;;;;;;;;17.80;99.90;;;;;;5054408;28;19917;-88
2023/08/13 04:50:06;;;;;;;;;;;17.90;99.90;;;;;;5054227;28;19909;-88
2023/08/13 04:52:32;;;;;;;;;;;18.00;99.90;;;;;;5037751;28;19935;-88
2023/08/13 04:54:58;;;;;;;;;;;18.00;99.90;;;;;;5038485;28;19905;-88
2023/08/13 04:57:24;;;;;;;;;;;18.00;99.90;;;;;;5054328;28;19912;-88
2023/08/13 04:59:50;;;;;;;;;;;18.00;99.90;;;;;;5036954;28;19908;-87
2023/08/13 05:02:16;;;;;;;;;;;18.00;99.90;;;;;;5056610;28;19935;-88
2023/08/13 05:04:42;;;;;;;;;;;18.00;99.90;;;;;;5056093;28;19915;-87
2023/08/13 05:07:08;;;;;;;;;;;18.00;99.90;;;;;;5054702;28;19936;-86
2023/08/13 05:09:34;;;;;;;;;;;18.00;99.90;;;;;;5050335;28;20352;-88
2023/08/13 05:12:01;;;;;;;;;;;18.00;99.90;;;;;;5053843;28;19908;-88
2023/08/13 05:14:27;;;;;;;;;;;18.00;99.90;;;;;;5040589;28;19913;-88
2023/08/13 05:16:54;;;;;;;;;;;18.00;99.90;;;;;;5062019;28;20003;-87
2023/08/13 05:19:20;;;;;;;;;;;18.00;99.90;;;;;;5054497;28;25149;-88
2023/08/13 05:21:47;;;;;;;;;;;18.10;99.90;;;;;;5060303;28;19908;-88
2023/08/13 05:24:12;;;;;;;;;;;18.10;99.90;;;;;;5039971;28;20681;-88
2023/08/13 05:26:38;;;;;;;;;;;18.20;99.90;;;;;;5060342;28;19912;-87
2023/08/13 05:29:04;;;;;;;;;;;18.10;99.90;;;;;;5055255;28;20390;-87
2023/08/13 05:31:30;;;;;;;;;;;18.10;99.90;;;;;;5054739;28;19923;-88
2023/08/13 05:33:57;;;;;;;;;;;18.10;99.90;;;;;;5063136;28;19904;-88
2023/08/13 05:36:24;;;;;;;;;;;18.20;99.90;;;;;;5036163;28;19917;-88
2023/08/13 05:38:50;;;;;;;;;;;18.30;99.90;;;;;;5031859;28;20007;-89
2023/08/13 05:41:17;;;;;;;;;;;18.30;99.90;;;;;;5053216;28;19913;-89
2023/08/13 05:43:43;;;;;;;;;;;18.40;99.90;;;;;;5053218;28;19917;-89
2023/08/13 05:46:08;;;;;;;;;;;18.50;99.90;;;;;;5059051;28;19913;-89
2023/08/13 05:48:35;;;;;;;;;;;18.50;99.90;;;;;;5054781;28;19912;-89
2023/08/13 05:51:01;;;;;;;;;;;18.60;99.90;;;;;;5049777;28;20355;-89
2023/08/13 05:53:26;;;;;;;;;;;18.70;99.90;;;;;;5057653;28;19912;-88
2023/08/13 05:55:52;;;;;;;;;;;18.80;99.90;;;;;;5052398;28;19908;-89
2023/08/13 05:58:18;;;;;;;;;;;18.80;99.90;;;;;;5041478;28;20277;-89
2023/08/13 06:00:44;;;;;;;;;;;18.90;99.90;;;;;;5044482;28;19947;-89
2023/08/13 06:03:09;;;;;;;;;;;18.80;99.90;;;;;;5052352;28;19916;-89
2023/08/13 06:05:37;;;;;;;;;;;18.70;99.90;;;;;;5059716;28;19962;-88
2023/08/13 06:08:03;;;;;;;;;;;18.80;99.90;;;;;;5033904;28;19956;-88
2023/08/13 06:10:29;;;;;;;;;;;18.90;99.90;;;;;;5056581;28;19904;-89
2023/08/13 06:12:55;;;;;;;;;;;18.70;99.90;;;;;;5037654;28;24062;-88
2023/08/13 06:15:21;;;;;;;;;;;18.50;99.90;;;;;;5036178;28;19909;-88
2023/08/13 06:17:47;;;;;;;;;;;18.60;99.90;;;;;;5056375;28;24061;-89
2023/08/13 06:20:14;;;;;;;;;;;18.80;99.90;;;;;;5052517;28;19980;-89
2023/08/13 06:22:40;;;;;;;;;;;18.80;99.90;;;;;;5036038;28;24126;-89
2023/08/13 06:25:06;;;;;;;;;;;18.80;99.90;;;;;;5067397;28;19924;-89
2023/08/13 06:27:31;;;;;;;;;;;18.70;99.90;;;;;;5049593;28;19916;-89
2023/08/13 06:29:57;;;;;;;;;;;18.90;99.90;;;;;;5053034;28;19916;-89
2023/08/13 06:32:22;;;;;;;;;;;19.30;99.90;;;;;;5073083;28;19909;-89
2023/08/13 06:34:48;;;;;;;;;;;19.50;99.90;;;;;;5043203;28;19932;-88
2023/08/13 06:37:14;;;;;;;;;;;19.80;99.90;;;;;;5054013;28;19909;-89
2023/08/13 06:39:39;;;;;;;;;;;20.10;99.90;;;;;;5056807;28;19936;-89
2023/08/13 06:42:07;;;;;;;;;;;20.20;99.90;;;;;;5050352;28;19915;-89
2023/08/13 06:44:33;;;;;;;;;;;20.10;99.90;;;;;;5043471;28;19915;-88
2023/08/13 06:46:59;;;;;;;;;;;20.20;99.90;;;;;;5053202;28;20004;-89
2023/08/13 06:49:24;;;;;;;;;;;20.20;99.90;;;;;;5053085;28;19923;-88
2023/08/13 06:51:50;;;;;;;;;;;20.30;99.90;;;;;;5060002;28;24124;-89
2023/08/13 06:54:15;;;;;;;;;;;20.40;99.90;;;;;;5051703;28;19912;-88
2023/08/13 06:56:42;;;;;;;;;;;20.50;99.90;;;;;;5058221;28;24144;-89
2023/08/13 06:59:08;;;;;;;;;;;20.40;99.90;;;;;;5059673;28;19904;-88
2023/08/13 07:01:33;;;;;;;;;;;20.10;99.90;;;;;;5037440;28;24075;-88
2023/08/13 07:03:59;;;;;;;;;;;20.20;99.90;;;;;;5054081;28;19908;-88
2023/08/13 07:06:25;;;;;;;;;;;20.70;99.90;;;;;;5036223;28;19909;-88
2023/08/13 07:08:51;;;;;;;;;;;21.00;99.90;;;;;;5051066;28;20733;-89
2023/08/13 07:11:17;;;;;;;;;;;21.00;99.90;;;;;;5035251;28;25048;-88
2023/08/13 07:13:42;;;;;;;;;;;21.20;99.90;;;;;;5050401;28;24057;-88
2023/08/13 07:16:10;;;;;;;;;;;21.10;99.90;;;;;;5044945;28;19918;-89
2023/08/13 07:18:36;;;;;;;;;;;21.30;99.90;;;;;;5037612;28;24081;-89
2023/08/13 07:21:01;;;;;;;;;;;21.40;99.90;;;;;;5060272;28;24097;-89
2023/08/13 07:23:28;;;;;;;;;;;21.50;99.90;;;;;;5053242;28;19952;-88
2023/08/13 07:25:53;;;;;;;;;;;21.40;99.90;;;;;;5050158;28;19935;-88
2023/08/13 07:28:19;;;;;;;;;;;21.70;99.90;;;;;;5046846;28;20344;-89
2023/08/13 07:30:47;;;;;;;;;;;21.80;99.90;;;;;;5033415;28;20356;-89
2023/08/13 07:33:12;;;;;;;;;;;21.80;99.90;;;;;;5052693;28;19909;-89
2023/08/13 07:35:38;;;;;;;;;;;21.90;99.90;;;;;;5050986;28;19904;-89
2023/08/13 07:38:04;;;;;;;;;;;22.20;99.90;;;;;;5049509;28;20003;-89
2023/08/13 07:40:30;;;;;;;;;;;22.10;99.90;;;;;;5033449;28;20018;-89
2023/08/13 07:42:57;;;;;;;;;;;22.10;99.90;;;;;;5049286;28;19915;-89
2023/08/13 07:45:23;;;;;;;;;;;22.20;99.90;;;;;;5048459;28;19948;-89
2023/08/13 07:47:49;;;;;;;;;;;22.20;99.90;;;;;;5034765;28;19913;-88
2023/08/13 07:50:15;;;;;;;;;;;22.40;99.90;;;;;;5053178;28;24101;-88
2023/08/13 07:52:42;;;;;;;;;;;22.70;99.90;;;;;;5053522;28;20275;-89
2023/08/13 07:55:08;;;;;;;;;;;22.80;99.90;;;;;;5032731;28;24058;-88
2023/08/13 07:57:34;;;;;;;;;;;22.90;99.90;;;;;;5055193;28;19915;-88
2023/08/13 07:59:59;;;;;;;;;;;22.90;99.90;;;;;;5056017;28;19909;-88
2023/08/13 08:02:25;;;;;;;;;;;23.00;99.90;;;;;;5039514;28;24073;-85
2023/08/13 08:04:50;;;;;;;;;;;23.50;99.90;;;;;;5038107;28;25058;-86
2023/08/13 08:07:17;;;;;;;;;;;23.80;99.90;;;;;;5062824;28;25057;-87
2023/08/13 08:09:42;;;;;;;;;;;23.80;99.90;;;;;;5042633;28;20383;-86
2023/08/13 08:12:08;;;;;;;;;;;23.50;99.90;;;;;;5048071;28;19947;-87
2023/08/13 08:14:34;;;;;;;;;;;23.10;99.90;;;;;;5043026;28;20007;-86
2023/08/13 08:17:05;;;;;;;;;;;23.30;99.90;;;;;;5041153;28;24080;-86
2023/08/13 08:19:31;;;;;;;;;;;23.40;99.90;;;;;;5037524;28;24073;-86
2023/08/13 08:21:58;;;;;;;;;;;23.40;99.90;;;;;;5065926;28;25074;-88
2023/08/13 08:24:24;;;;;;;;;;;23.50;99.90;;;;;;5059359;28;19920;-89
2023/08/13 08:26:50;;;;;;;;;;;23.90;99.90;;;;;;5060516;28;20275;-89
2023/08/13 08:29:15;;;;;;;;;;;24.40;99.90;;;;;;5043610;28;19913;-88
2023/08/13 08:31:41;;;;;;;;;;;25.00;99.90;;;;;;5064315;28;20323;-88
2023/08/13 08:34:06;;;;;;;;;;;25.90;99.90;;;;;;5044911;28;19912;-86
2023/08/13 08:36:32;;;;;;;;;;;26.20;99.90;;;;;;5059531;28;19958;-87
2023/08/13 08:38:57;;;;;;;;;;;26.30;99.90;;;;;;5060679;28;19992;-87
2023/08/13 08:41:27;;;;;;;;;;;26.40;99.90;;;;;;5061807;28;19919;-87
2023/08/13 08:43:54;;;;;;;;;;;26.40;99.90;;;;;;5056225;28;19977;-87
2023/08/13 08:46:19;;;;;;;;;;;26.70;99.90;;;;;;5060910;28;19917;-88
2023/08/13 08:48:45;;;;;;;;;;;26.20;99.90;;;;;;5057995;28;19939;-88
2023/08/13 08:51:10;;;;;;;;;;;26.10;99.90;;;;;;5061434;28;19913;-88
2023/08/13 08:53:37;;;;;;;;;;;25.90;99.90;;;;;;5045317;28;19919;-88
2023/08/13 08:56:02;;;;;;;;;;;25.40;99.90;;;;;;5060561;28;20267;-88
2023/08/13 08:58:28;;;;;;;;;;;25.30;99.90;;;;;;5047504;28;19931;-88
2023/08/13 09:00:59;;;;;;;;;;;25.50;99.90;;;;;;5060337;28;19958;-88
2023/08/13 09:03:26;;;;;;;;;;;26.00;99.90;;;;;;5050022;28;19908;-88
2023/08/13 09:05:51;;;;;;;;;;;26.20;99.90;;;;;;5044863;28;19959;-88
2023/08/13 09:08:19;;;;;;;;;;;26.60;99.90;;;;;;5044180;28;20371;-88
2023/08/13 09:10:44;;;;;;;;;;;25.80;99.90;;;;;;5041552;28;19916;-88
2023/08/13 09:13:10;;;;;;;;;;;26.20;99.90;;;;;;5064417;28;19909;-88
2023/08/13 09:15:43;;;;;;;;;;;27.00;99.90;;;;;;5035848;28;19917;-88
2023/08/13 09:18:10;;;;;;;;;;;27.80;99.90;;;;;;5048469;28;19951;-88
2023/08/13 09:20:41;;;;;;;;;;;28.20;99.90;;;;;;5037248;28;19916;-88
2023/08/13 09:23:07;;;;;;;;;;;27.60;99.90;;;;;;5057363;28;19919;-88
2023/08/13 09:25:32;;;;;;;;;;;28.20;99.90;;;;;;5042386;28;19909;-89
2023/08/13 09:27:58;;;;;;;;;;;29.10;99.90;;;;;;5060086;28;19921;-89
2023/08/13 09:30:31;;;;;;;;;;;28.50;99.90;;;;;;5060168;28;19975;-89
2023/08/13 09:32:58;;;;;;;;;;;27.30;99.90;;;;;;5044706;28;19959;-88
2023/08/13 09:35:24;;;;;;;;;;;27.60;99.90;;;;;;5060873;28;20279;-88
2023/08/13 09:37:51;;;;;;;;;;;28.40;99.90;;;;;;5045476;28;19936;-87
2023/08/13 09:40:16;;;;;;;;;;;29.00;99.90;;;;;;5063484;28;19912;-88
2023/08/13 09:42:43;;;;;;;;;;;29.10;99.90;;;;;;5055595;28;19916;-89
2023/08/13 09:45:09;;;;;;;;;;;29.00;99.90;;;;;;5063866;28;19931;-89
2023/08/13 09:47:35;;;;;;;;;;;28.10;99.90;;;;;;5056852;28;20276;-87
2023/08/13 09:50:02;;;;;;;;;;;27.60;99.90;;;;;;5060211;28;19905;-89
2023/08/13 09:52:29;;;;;;;;;;;27.20;99.90;;;;;;5042425;28;19965;-89
2023/08/13 09:54:59;;;;;;;;;;;26.50;99.90;;;;;;5062562;28;19996;-88
2023/08/13 09:57:26;;;;;;;;;;;26.10;99.90;;;;;;5043050;28;20555;-89
2023/08/13 09:59:53;;;;;;;;;;;25.60;99.90;;;;;;5040809;28;20272;-89
2023/08/13 10:02:31;;;;;;;;;;;25.50;99.90;;;;;;5062288;28;19913;-89
2023/08/13 10:05:03;;;;;;;;;;;25.60;99.90;;;;;;5041550;28;20310;-87
2023/08/13 10:07:28;;;;;;;;;;;25.50;99.90;;;;;;5064367;28;19986;-88
2023/08/13 10:09:54;;;;;;;;;;;25.70;99.90;;;;;;5059913;28;19904;-89
2023/08/13 10:12:20;;;;;;;;;;;26.00;99.90;;;;;;5059582;28;20394;-88
2023/08/13 10:14:47;;;;;;;;;;;25.50;99.90;;;;;;5061058;28;19999;-89
2023/08/13 10:17:16;;;;;;;;;;;25.30;99.90;;;;;;5061460;28;19908;-88
2023/08/13 10:19:44;;;;;;;;;;;25.30;99.90;;;;;;5061584;28;19913;-88
2023/08/13 10:22:11;;;;;;;;;;;25.50;99.90;;;;;;5041378;28;20429;-89
2023/08/13 10:24:37;;;;;;;;;;;26.10;99.90;;;;;;5046980;28;20521;-88
2023/08/13 10:27:03;;;;;;;;;;;26.50;99.90;;;;;;5059403;28;19908;-89
2023/08/13 10:29:36;;;;;;;;;;;27.30;99.90;;;;;;5039657;28;20333;-89
2023/08/13 10:32:10;;;;;;;;;;;27.90;99.90;;;;;;5060170;28;19909;-88
2023/08/13 10:34:37;;;;;;;;;;;28.00;99.90;;;;;;5062021;28;19915;-89
2023/08/13 10:37:07;;;;;;;;;;;28.50;99.90;;;;;;5062251;28;20279;-89
2023/08/13 10:39:34;;;;;;;;;;;28.40;99.90;;;;;;5059936;28;19961;-89
2023/08/13 10:42:04;;;;;;;;;;;29.00;99.90;;;;;;5055834;28;19931;-89
2023/08/13 10:44:31;;;;;;;;;;;28.10;99.90;;;;;;5061764;28;19908;-88
2023/08/13 10:46:57;;;;;;;;;;;28.00;99.90;;;;;;5040494;28;19915;-89
2023/08/13 10:49:24;;;;;;;;;;;28.80;99.90;;;;;;5055454;28;19916;-89
2023/08/13 10:51:50;;;;;;;;;;;29.20;99.90;;;;;;5058652;28;19908;-88
2023/08/13 10:54:17;;;;;;;;;;;29.70;99.90;;;;;;5057551;28;19970;-89
2023/08/13 10:56:42;;;;;;;;;;;29.20;99.90;;;;;;5059866;28;19908;-88
2023/08/13 10:59:08;;;;;;;;;;;28.80;99.90;;;;;;5060725;28;19915;-88
2023/08/13 11:01:33;;;;;;;;;;;28.30;99.90;;;;;;5042714;28;20367;-88
2023/08/13 11:04:01;;;;;;;;;;;27.90;99.90;;;;;;5040174;28;19909;-89
2023/08/13 11:06:30;;;;;;;;;;;27.80;99.90;;;;;;5062633;28;20550;-89
2023/08/13 11:08:56;;;;;;;;;;;27.50;99.90;;;;;;5058227;28;19920;-88
2023/08/13 11:11:21;;;;;;;;;;;26.90;99.90;;;;;;5040007;28;19909;-89
2023/08/13 11:13:48;;;;;;;;;;;27.00;99.90;;;;;;5060862;28;19935;-88
2023/08/13 11:19:22;;;;;;;;;;;27.20;99.90;;;;;;5057865;28;20003;-89
2023/08/13 11:21:48;;;;;;;;;;;27.00;99.90;;;;;;5041279;28;20005;-89
2023/08/13 11:24:14;;;;;;;;;;;27.00;99.90;;;;;;5055078;28;19913;-89
2023/08/13 11:26:39;;;;;;;;;;;26.50;99.90;;;;;;5060189;28;19926;-89
2023/08/13 11:29:05;;;;;;;;;;;26.60;99.90;;;;;;5038635;28;19912;-88
2023/08/13 11:31:34;;;;;;;;;;;26.50;99.90;;;;;;5062047;28;20799;-88
2023/08/13 11:33:59;;;;;;;;;;;26.60;99.90;;;;;;5057699;28;20387;-88
2023/08/13 11:36:25;;;;;;;;;;;26.40;99.90;;;;;;5055404;28;19916;-89
2023/08/13 11:38:51;;;;;;;;;;;26.30;99.90;;;;;;5041588;28;19919;-88
2023/08/13 11:41:17;;;;;;;;;;;26.50;99.90;;;;;;5057788;28;20751;-88
2023/08/13 11:43:42;;;;;;;;;;;26.10;99.90;;;;;;5042860;28;19955;-88
2023/08/13 11:46:08;;;;;;;;;;;25.60;99.90;;;;;;5060291;28;20371;-88
2023/08/13 11:48:37;;;;;;;;;;;25.80;99.90;;;;;;5059215;28;20030;-88
2023/08/13 11:51:13;;;;;;;;;;;25.90;99.90;;;;;;5040162;28;19905;-88
2023/08/13 11:53:49;;;;;;;;;;;25.50;99.90;;;;;;5045418;28;20413;-88
2023/08/13 11:56:15;;;;;;;;;;;25.20;99.90;;;;;;5041673;28;19957;-89
2023/08/13 11:58:41;;;;;;;;;;;25.20;99.90;;;;;;5039796;28;19915;-88
2023/08/13 12:01:08;;;;;;;;;;;25.40;99.90;;;;;;5042141;28;19909;-88
2023/08/13 12:03:35;;;;;;;;;;;25.90;99.90;;;;;;5058056;28;19915;-88
2023/08/13 12:06:00;;;;;;;;;;;25.80;99.90;;;;;;5043267;28;19905;-88
2023/08/13 12:08:27;;;;;;;;;;;25.50;99.90;;;;;;5060985;28;19931;-88
2023/08/13 12:10:52;;;;;;;;;;;25.30;99.90;;;;;;5052710;28;19909;-88
2023/08/13 12:13:18;;;;;;;;;;;26.20;99.90;;;;;;5063103;28;19916;-89
2023/08/13 12:15:44;;;;;;;;;;;26.80;99.90;;;;;;5054840;28;20372;-90
2023/08/13 12:18:09;;;;;;;;;;;26.70;99.90;;;;;;5064522;28;20253;-89
2023/08/13 12:20:35;;;;;;;;;;;26.10;99.90;;;;;;5057692;28;20412;-88
2023/08/13 12:23:00;;;;;;;;;;;25.80;99.90;;;;;;5042357;28;19912;-89
2023/08/13 12:25:26;;;;;;;;;;;26.30;99.90;;;;;;5039743;28;19963;-88
2023/08/13 12:27:53;;;;;;;;;;;26.60;99.90;;;;;;5061518;28;19913;-88
2023/08/13 12:30:19;;;;;;;;;;;26.70;99.90;;;;;;5056886;28;19913;-88
2023/08/13 12:32:44;;;;;;;;;;;26.60;99.90;;;;;;5038430;28;19908;-89
2023/08/13 12:35:10;;;;;;;;;;;26.80;99.90;;;;;;5041336;28;19909;-88
2023/08/13 12:37:35;;;;;;;;;;;26.70;99.90;;;;;;5056888;28;20386;-88
2023/08/13 12:40:02;;;;;;;;;;;26.80;99.90;;;;;;5041832;28;19909;-89
2023/08/13 12:42:28;;;;;;;;;;;26.50;99.90;;;;;;5042415;28;19904;-88
2023/08/13 12:44:53;;;;;;;;;;;26.10;99.90;;;;;;5052137;28;20275;-88
2023/08/13 12:47:19;;;;;;;;;;;26.20;99.90;;;;;;5043962;28;19994;-89
2023/08/13 12:49:46;;;;;;;;;;;26.50;99.90;;;;;;5053966;28;19913;-89
2023/08/13 12:52:12;;;;;;;;;;;27.10;99.90;;;;;;5045928;28;20314;-90
2023/08/13 12:54:37;;;;;;;;;;;28.10;99.90;;;;;;5059948;28;19950;-90
2023/08/13 12:57:03;;;;;;;;;;;28.40;99.90;;;;;;5061233;28;19931;-89
2023/08/13 12:59:28;;;;;;;;;;;28.40;99.90;;;;;;5058496;28;19995;-90
2023/08/13 13:01:54;;;;;;;;;;;27.90;99.90;;;;;;5047128;28;19909;-90
2023/08/13 13:04:26;;;;;;;;;;;27.90;99.90;;;;;;5060346;28;20374;-89
2023/08/13 13:06:51;;;;;;;;;;;28.70;99.90;;;;;;5066039;28;19912;-89
2023/08/13 13:09:17;;;;;;;;;;;29.80;99.90;;;;;;5060981;28;19919;-90
2023/08/13 13:15:11;;;;;;;;;;;29.70;99.90;;;;;;5057065;28;19919;-89
2023/08/13 13:17:37;;;;;;;;;;;29.60;99.90;;;;;;5061606;28;19908;-89
2023/08/13 13:20:10;;;;;;;4.47;2.00;;;29.80;99.90;;;;;;5041524;28;19916;-88
2023/08/13 13:22:36;;;;;;;4.35;2.25;;;30.90;99.90;;;;;;5057310;28;20090;-88
2023/08/13 13:25:03;;;;;;;5.53;1.95;;;31.10;99.90;;;;;;5039037;28;20643;-89
2023/08/13 13:27:28;;;;;;;;;;;31.40;99.90;;;;;;5048406;28;20609;-88
2023/08/13 13:29:54;;;;;;;;;;;31.50;99.90;;;;;;5064664;28;19917;-89
2023/08/13 13:32:19;;;;;;;;;;;31.80;99.90;;;;;;5042680;28;19958;-89
2023/08/13 13:34:45;;;;;;;;;;;31.70;99.90;;;;;;5056852;28;20383;-88
2023/08/13 13:37:11;;;;;;;;;;;31.60;99.90;;;;;;5044922;28;20280;-89
2023/08/13 13:39:36;;;;;;;;;;;31.10;99.90;;;;;;5059248;28;19923;-88
2023/08/13 13:42:02;;;;;;;;;;;30.90;99.90;;;;;;5046866;28;19950;-88
2023/08/13 13:44:28;;;;;;;;;;;30.50;99.90;;;;;;5061554;28;20441;-88
2023/08/13 13:46:53;;;;;;;;;;;29.80;99.90;;;;;;5067224;28;20584;-88
2023/08/13 13:49:19;;;;;;;;;;;29.10;99.90;;;;;;5059649;28;19920;-88
2023/08/13 13:51:45;;;;;;;6.40;1.77;;;29.10;99.90;;;;;;5064104;28;20327;-89
2023/08/13 13:54:10;;;;;;;5.28;2.25;;;28.90;99.90;;;;;;5042728;28;20028;-89
2023/08/13 13:56:36;;;;;;;;;;;28.40;99.90;;;;;;5041718;28;20040;-89
2023/08/13 13:59:03;;;;;;;;;;;27.70;99.90;;;;;;5044839;28;19990;-87
2023/08/13 14:01:28;;;;;;;;;;;27.30;99.90;;;;;;5060873;28;20515;-88
2023/08/13 14:03:54;;;;;;;;;;;26.70;99.90;;;;;;5043426;28;19957;-88
2023/08/13 14:06:32;;;;;;;;;;;26.40;99.90;;;;;;5058006;28;20271;-88
2023/08/13 14:08:57;;;;;;;;;;;26.30;99.90;;;;;;5045903;28;19924;-89
2023/08/13 14:11:23;;;;;;;;;;;26.10;99.90;;;;;;5042016;28;19909;-88
2023/08/13 14:13:49;;;;;;;;;;;26.10;99.90;;;;;;5040347;28;19912;-89
2023/08/13 14:16:14;;;;;;;;;;;26.20;99.90;;;;;;5043367;28;20360;-88
2023/08/13 14:18:40;;;;;;;;;;;26.10;99.90;;;;;;5059094;28;19908;-88